Terminal Aerodrome Forecast
Issued by NWS

Home | Current Version | Previous Version | Text Only | Print | Product List | Glossary On
Versions: 1 2 3 4 5 6 7 8 9 10 11 12 13 14 15 16 17 18 19 20 21 22 23 24 25 26
000
FTUS44 KHGX 051139
TAFCXO
TAF
KCXO 051139Z 0512/0612 07009KT 6SM -RA BR VCTS BKN007 BKN015CB
      TEMPO 0512/0516 2SM +RA BR OVC007
     FM051600 04009KT 6SM BR VCSH BKN007 OVC015
     FM052000 35007KT P6SM BKN007 OVC015
     FM060300 28006KT P6SM SCT007 BKN015
     FM060800 24005KT P6SM FEW015=

USA.gov is the U.S. government's official web portal to all federal, state and local government web resources and services.